createdAt,value
2022-09-07T00:01:47.157Z,42.95
2022-09-07T00:04:20.582Z,42.83
2022-09-07T00:06:54.302Z,43.00
2022-09-07T00:09:28.017Z,43.19
2022-09-07T00:12:01.445Z,43.35
2022-09-07T00:14:35.719Z,43.33
2022-09-07T00:17:09.310Z,43.47
2022-09-07T00:19:43.018Z,43.41
2022-09-07T00:22:16.602Z,43.56
2022-09-07T00:24:50.168Z,43.62
2022-09-07T00:27:23.869Z,43.70
2022-09-07T00:29:57.393Z,43.77
2022-09-07T00:32:31.065Z,43.70
2022-09-07T00:35:05.222Z,43.89
2022-09-07T00:37:38.529Z,44.04
2022-09-07T00:40:13.124Z,43.99
2022-09-07T00:42:46.719Z,44.26
2022-09-07T00:45:21.252Z,44.29
2022-09-07T00:48:00.993Z,44.29
2022-09-07T00:50:39.654Z,44.48
2022-09-07T00:53:18.119Z,44.58
2022-09-07T00:55:54.224Z,44.66
2022-09-07T00:58:29.512Z,44.69
2022-09-07T01:01:03.097Z,44.58
2022-09-07T01:03:41.640Z,44.80
2022-09-07T01:06:18.852Z,44.91
2022-09-07T01:08:53.806Z,45.03
2022-09-07T01:11:27.334Z,44.95
2022-09-07T01:14:00.735Z,45.18
2022-09-07T01:16:48.341Z,45.12
2022-09-07T01:19:49.573Z,45.34
2022-09-07T01:22:44.055Z,45.35
2022-09-07T01:25:31.111Z,45.63
2022-09-07T01:28:22.289Z,45.68
2022-09-07T01:30:59.570Z,45.71
2022-09-07T01:33:45.326Z,45.75
2022-09-07T01:36:29.580Z,45.87
2022-09-07T01:39:05.456Z,45.93
2022-09-07T01:41:45.631Z,45.97
2022-09-07T01:44:23.657Z,45.96
2022-09-07T01:47:03.189Z,45.99
2022-09-07T01:49:42.309Z,46.10
2022-09-07T01:52:24.990Z,46.29
2022-09-07T01:55:05.747Z,46.49
2022-09-07T01:57:44.131Z,46.54
2022-09-07T02:00:21.812Z,46.53
2022-09-07T02:03:00.876Z,46.79
2022-09-07T02:05:41.049Z,46.73
2022-09-07T02:08:19.777Z,46.70
2022-09-07T02:10:57.309Z,46.86
2022-09-07T02:13:35.666Z,46.87
2022-09-07T02:16:12.695Z,46.89
2022-09-07T02:18:49.446Z,46.92
2022-09-07T02:21:28.263Z,47.03
2022-09-07T02:24:07.246Z,47.01
2022-09-07T02:26:41.034Z,47.11
2022-09-07T02:29:14.916Z,47.20
2022-09-07T02:31:48.530Z,47.34
2022-09-07T02:34:22.454Z,47.40
2022-09-07T02:36:57.776Z,47.61
2022-09-07T02:39:31.430Z,47.40
2022-09-07T02:42:04.743Z,47.53
2022-09-07T02:44:41.738Z,47.75
2022-09-07T02:47:28.778Z,47.87
2022-09-07T02:50:30.926Z,47.84
2022-09-07T02:53:29.513Z,47.93
2022-09-07T02:56:13.990Z,48.10
2022-09-07T02:58:57.105Z,48.08
2022-09-07T03:01:41.859Z,48.23
2022-09-07T03:04:25.939Z,48.29
2022-09-07T03:07:06.038Z,48.22
2022-09-07T03:09:44.468Z,48.33
2022-09-07T03:12:18.296Z,48.49
2022-09-07T03:14:51.904Z,48.50
2022-09-07T03:17:25.411Z,48.53
2022-09-07T03:19:58.923Z,48.60
2022-09-07T03:22:34.309Z,48.58
2022-09-07T03:25:09.542Z,48.85
2022-09-07T03:27:43.861Z,48.87
2022-09-07T03:30:18.450Z,48.88
2022-09-07T03:32:52.114Z,48.98
2022-09-07T03:35:25.692Z,49.15
2022-09-07T03:37:59.297Z,49.15
2022-09-07T03:40:32.599Z,49.26
2022-09-07T03:43:06.108Z,49.23
2022-09-07T03:45:39.667Z,49.42
2022-09-07T03:48:13.304Z,49.34
2022-09-07T03:50:46.977Z,49.43
2022-09-07T03:53:20.435Z,49.65
2022-09-07T03:56:05.183Z,49.74
2022-09-07T03:58:39.229Z,49.78
2022-09-07T04:01:15.603Z,49.83
2022-09-07T04:03:50.232Z,49.85
2022-09-07T04:06:23.951Z,49.89
2022-09-07T04:08:57.825Z,49.86
2022-09-07T04:11:32.246Z,49.88
2022-09-07T04:14:06.301Z,49.91
2022-09-07T04:16:40.013Z,49.96
2022-09-07T04:19:14.513Z,49.98
2022-09-07T04:21:48.386Z,50.13
2022-09-07T04:24:22.039Z,50.29
2022-09-07T04:26:56.150Z,50.25
2022-09-07T04:29:33.207Z,50.41
2022-09-07T04:32:07.035Z,50.41
2022-09-07T04:34:40.791Z,50.43
2022-09-07T04:37:14.547Z,50.43
2022-09-07T04:39:48.513Z,50.25
2022-09-07T04:42:22.321Z,50.07
2022-09-07T04:44:55.625Z,50.28
2022-09-07T04:47:31.122Z,50.67
2022-09-07T04:50:04.745Z,50.26
2022-09-07T04:52:38.272Z,50.13
2022-09-07T04:55:13.368Z,50.34
2022-09-07T04:57:46.991Z,50.43
2022-09-07T05:00:21.040Z,50.31
2022-09-07T05:02:54.578Z,50.40
2022-09-07T05:05:28.108Z,50.42
2022-09-07T05:08:01.419Z,50.47
2022-09-07T05:10:35.407Z,50.47
2022-09-07T05:13:09.419Z,50.05
2022-09-07T05:15:43.560Z,50.11
2022-09-07T05:18:17.425Z,49.85
2022-09-07T05:20:50.703Z,49.52
2022-09-07T05:23:24.748Z,49.07
2022-09-07T05:25:58.101Z,49.09
2022-09-07T05:28:31.906Z,49.20
2022-09-07T05:31:18.964Z,48.80
2022-09-07T05:36:48.112Z,48.81
2022-09-07T05:39:22.240Z,48.78
2022-09-07T05:41:55.771Z,48.73
2022-09-07T05:44:45.119Z,48.57
2022-09-07T05:47:19.880Z,48.03
2022-09-07T05:49:57.263Z,47.36
2022-09-07T05:52:30.905Z,46.72
2022-09-07T05:55:26.244Z,46.75
2022-09-07T05:57:57.871Z,46.60
2022-09-07T06:00:32.048Z,46.63
2022-09-07T06:03:06.115Z,46.51
2022-09-07T06:05:39.944Z,46.34
2022-09-07T06:08:14.122Z,45.70
2022-09-07T06:10:47.729Z,45.90
2022-09-07T06:13:21.401Z,45.88
2022-09-07T06:15:55.080Z,45.78
2022-09-07T06:18:33.188Z,45.81
2022-09-07T06:21:11.020Z,45.70
2022-09-07T06:23:45.672Z,45.16
2022-09-07T06:26:20.510Z,45.19
2022-09-07T06:28:57.630Z,45.30
2022-09-07T06:31:31.975Z,44.35
2022-09-07T06:34:05.869Z,41.92
2022-09-07T06:36:39.229Z,38.95
2022-09-07T06:39:13.499Z,37.73
2022-09-07T06:42:01.830Z,35.82
2022-09-07T06:44:37.376Z,32.88
2022-09-07T06:47:11.524Z,29.64
2022-09-07T06:49:44.882Z,28.11
2022-09-07T06:52:18.513Z,29.24
2022-09-07T06:54:59.890Z,28.16
2022-09-07T06:57:34.216Z,26.35
2022-09-07T07:00:09.327Z,25.28
2022-09-07T07:02:42.911Z,23.82
2022-09-07T07:05:16.722Z,23.70
2022-09-07T07:07:50.384Z,22.41
2022-09-07T07:10:24.974Z,21.05
2022-09-07T07:12:58.945Z,20.31
2022-09-07T07:15:33.738Z,19.87
2022-09-07T07:18:20.233Z,19.83
2022-09-07T07:20:54.933Z,20.01
2022-09-07T07:23:28.732Z,20.97
2022-09-07T07:26:06.757Z,21.55
2022-09-07T07:31:35.405Z,22.13
2022-09-07T07:34:09.510Z,22.03
2022-09-07T07:36:43.413Z,22.27
2022-09-07T07:42:12.666Z,22.20
2022-09-07T07:44:46.443Z,22.26
2022-09-07T07:47:20.400Z,22.68
2022-09-07T07:50:30.765Z,23.17
2022-09-07T07:53:39.594Z,23.72
2022-09-07T07:55:44.730Z,23.16
2022-09-07T07:58:18.647Z,22.68
2022-09-07T08:00:56.307Z,21.61
2022-09-07T08:03:30.489Z,20.41
2022-09-07T08:06:08.713Z,18.66
2022-09-07T08:08:43.482Z,18.77
2022-09-07T08:11:19.390Z,17.62
2022-09-07T08:13:55.202Z,16.94
2022-09-07T08:16:29.063Z,17.66
2022-09-07T08:19:02.821Z,17.97
2022-09-07T08:21:36.170Z,17.93
2022-09-07T08:24:10.629Z,17.63
2022-09-07T08:26:44.265Z,16.93
2022-09-07T08:29:18.440Z,16.99
2022-09-07T08:31:52.566Z,16.67
2022-09-07T08:34:26.255Z,17.23
2022-09-07T08:37:00.165Z,17.25
2022-09-07T08:39:33.911Z,18.62
2022-09-07T08:42:33.514Z,19.14
2022-09-07T08:45:13.572Z,19.38
2022-09-07T08:47:51.573Z,18.96
2022-09-07T08:50:29.845Z,19.40
2022-09-07T08:53:09.347Z,19.94
2022-09-07T08:55:49.091Z,20.17
2022-09-07T08:58:47.558Z,21.07
2022-09-07T09:01:36.695Z,21.80
2022-09-07T09:04:20.572Z,22.54
2022-09-07T09:07:14.101Z,22.76
2022-09-07T09:10:05.783Z,22.94
2022-09-07T09:12:57.311Z,23.54
2022-09-07T09:15:42.627Z,23.74
2022-09-07T09:18:25.726Z,23.11
2022-09-07T09:21:00.995Z,23.17
2022-09-07T09:23:40.973Z,23.75
2022-09-07T09:26:20.786Z,23.94
2022-09-07T09:28:54.369Z,24.04
2022-09-07T09:31:30.495Z,24.25
2022-09-07T09:34:15.066Z,24.98
2022-09-07T09:36:53.162Z,25.33
2022-09-07T09:39:34.279Z,25.56
2022-09-07T09:42:25.186Z,25.98
2022-09-07T09:45:07.627Z,26.25
2022-09-07T09:47:41.955Z,26.07
2022-09-07T09:53:29.799Z,25.70
2022-09-07T09:56:05.159Z,25.06
2022-09-07T10:01:36.811Z,25.79
2022-09-07T10:04:35.214Z,26.10
2022-09-07T10:07:19.305Z,26.12
2022-09-07T10:09:56.971Z,26.27
2022-09-07T10:12:34.822Z,26.50
2022-09-07T10:15:33.669Z,26.21
2022-09-07T10:18:19.671Z,25.35
2022-09-07T10:20:53.317Z,25.47
2022-09-07T10:23:29.164Z,25.49
2022-09-07T10:26:21.417Z,25.85
2022-09-07T10:29:14.710Z,25.35
2022-09-07T10:32:07.731Z,25.14
2022-09-07T10:34:52.832Z,25.67
2022-09-07T10:37:35.910Z,26.13
2022-09-07T10:40:23.554Z,25.94
2022-09-07T10:43:23.539Z,25.76
2022-09-07T10:49:24.355Z,25.91
2022-09-07T10:52:07.944Z,25.82
2022-09-07T10:54:51.959Z,25.37
2022-09-07T10:57:53.324Z,25.35
2022-09-07T11:00:31.953Z,25.66
2022-09-07T11:03:25.577Z,25.62
2022-09-07T11:06:12.609Z,25.46
2022-09-07T11:09:21.947Z,25.91
2022-09-07T11:12:03.601Z,25.86
2022-09-07T11:14:44.001Z,26.06
2022-09-07T11:17:23.099Z,26.26
2022-09-07T11:20:05.377Z,25.49
2022-09-07T11:22:44.690Z,25.84
2022-09-07T11:25:30.181Z,25.69
2022-09-07T11:28:10.706Z,25.18
2022-09-07T11:30:50.180Z,25.02
2022-09-07T11:33:28.308Z,24.83
2022-09-07T11:36:12.283Z,24.84
2022-09-07T11:38:51.634Z,24.91
2022-09-07T11:41:29.623Z,24.66
2022-09-07T11:44:08.007Z,25.14
2022-09-07T11:46:45.973Z,24.89
2022-09-07T11:49:23.564Z,25.02
2022-09-07T11:52:04.971Z,24.86
2022-09-07T11:54:53.969Z,24.37
2022-09-07T11:57:55.447Z,23.67
2022-09-07T12:00:42.739Z,23.20
2022-09-07T12:03:33.317Z,23.22
2022-09-07T12:06:45.493Z,23.59
2022-09-07T12:09:38.478Z,24.09
2022-09-07T12:12:36.624Z,23.10
2022-09-07T12:15:25.510Z,22.33
2022-09-07T12:18:14.958Z,21.54
2022-09-07T12:20:50.402Z,20.31
2022-09-07T12:23:31.340Z,19.69
2022-09-07T12:26:39.853Z,18.65
2022-09-07T12:29:30.465Z,18.55
2022-09-07T12:34:59.747Z,19.06
2022-09-07T12:37:49.665Z,19.14
2022-09-07T12:41:00.883Z,19.95
2022-09-07T12:44:07.659Z,20.28
2022-09-07T12:47:02.405Z,20.53
2022-09-07T12:50:07.049Z,20.33
2022-09-07T12:52:56.493Z,20.43
2022-09-07T12:59:02.453Z,20.71
2022-09-07T13:01:52.361Z,21.24
2022-09-07T13:04:55.489Z,21.28
2022-09-07T13:08:08.002Z,21.70
2022-09-07T13:10:43.936Z,21.85
2022-09-07T13:20:03.735Z,21.57
2022-09-07T13:23:22.258Z,21.50
2022-09-07T13:25:59.250Z,21.97
2022-09-07T13:28:54.928Z,21.91
2022-09-07T13:31:45.632Z,22.17
2022-09-07T13:34:58.731Z,22.16
2022-09-07T13:37:37.029Z,22.29
2022-09-07T13:40:16.889Z,22.55
2022-09-07T13:42:52.566Z,22.46
2022-09-07T13:45:45.999Z,22.81
2022-09-07T13:48:26.982Z,22.89
2022-09-07T13:51:08.389Z,22.77
2022-09-07T13:54:05.936Z,22.76
2022-09-07T13:56:51.012Z,22.91
2022-09-07T13:59:28.609Z,22.59
2022-09-07T14:02:03.040Z,22.82
2022-09-07T14:04:41.168Z,22.94
2022-09-07T14:07:19.140Z,23.02
2022-09-07T14:10:05.329Z,22.84
2022-09-07T14:12:47.375Z,22.85
2022-09-07T14:15:29.823Z,22.46
2022-09-07T14:18:12.685Z,21.86
2022-09-07T14:20:49.852Z,22.56
2022-09-07T14:23:28.888Z,22.59
2022-09-07T14:26:20.755Z,22.69
2022-09-07T14:28:55.855Z,22.97
2022-09-07T14:31:30.933Z,22.95
2022-09-07T14:34:04.816Z,23.23
2022-09-07T14:36:45.870Z,23.09
2022-09-07T14:39:22.980Z,23.25
2022-09-07T14:41:56.606Z,23.21
2022-09-07T14:44:41.089Z,23.05
2022-09-07T14:47:29.271Z,23.50
2022-09-07T14:50:06.527Z,23.44
2022-09-07T14:53:33.640Z,23.28
2022-09-07T14:55:39.267Z,23.40
2022-09-07T14:58:25.401Z,23.74
2022-09-07T15:04:20.427Z,23.64
2022-09-07T15:07:01.587Z,23.68
2022-09-07T15:09:40.577Z,23.84
2022-09-07T15:12:36.094Z,23.80
2022-09-07T15:15:26.141Z,23.57
2022-09-07T15:18:08.255Z,23.13
2022-09-07T15:20:44.563Z,23.38
2022-09-07T15:23:20.318Z,23.48
2022-09-07T15:25:54.437Z,23.54
2022-09-07T15:31:56.867Z,23.78
2022-09-07T15:34:24.621Z,23.74
2022-09-07T15:37:01.045Z,24.04
2022-09-07T15:39:35.987Z,23.77
2022-09-07T15:45:05.668Z,24.06
2022-09-07T15:47:43.965Z,24.08
2022-09-07T15:50:23.702Z,24.29
2022-09-07T15:52:57.557Z,24.34
2022-09-07T15:55:34.562Z,24.38
2022-09-07T15:58:11.843Z,24.45
2022-09-07T16:00:46.368Z,24.29
2022-09-07T16:03:20.138Z,24.64
2022-09-07T16:05:54.049Z,24.73
2022-09-07T16:08:32.790Z,24.71
2022-09-07T16:11:18.537Z,24.79
2022-09-07T16:13:56.370Z,24.76
2022-09-07T16:19:23.971Z,24.88
2022-09-07T16:21:57.788Z,24.95
2022-09-07T16:24:31.592Z,24.95
2022-09-07T16:27:05.168Z,24.95
2022-09-07T16:29:38.947Z,25.43
2022-09-07T16:35:06.637Z,25.38
2022-09-07T16:38:43.630Z,25.57
2022-09-07T16:40:33.958Z,25.72
2022-09-07T16:43:07.103Z,26.03
2022-09-07T16:48:35.778Z,26.64
2022-09-07T16:51:11.369Z,26.95
2022-09-07T16:53:45.195Z,26.79
2022-09-07T16:56:20.680Z,27.09
2022-09-07T16:58:56.561Z,26.82
2022-09-07T17:01:32.308Z,27.21
2022-09-07T17:04:10.731Z,27.39
2022-09-07T17:06:45.459Z,27.74
2022-09-07T17:09:19.222Z,27.62
2022-09-07T17:11:52.534Z,27.93
2022-09-07T17:14:28.615Z,28.12
2022-09-07T17:17:02.140Z,28.13
2022-09-07T17:19:36.266Z,28.25
2022-09-07T17:22:09.996Z,28.58
2022-09-07T17:24:43.845Z,29.23
2022-09-07T17:27:17.881Z,29.65
2022-09-07T17:29:53.795Z,30.10
2022-09-07T17:32:28.950Z,30.46
2022-09-07T17:35:02.745Z,30.77
2022-09-07T17:37:36.845Z,30.97
2022-09-07T17:40:12.955Z,31.09
2022-09-07T17:45:44.958Z,31.34
2022-09-07T17:48:18.688Z,31.26
2022-09-07T17:51:01.421Z,31.33
2022-09-07T17:53:35.175Z,31.45
2022-09-07T17:56:10.763Z,31.37
2022-09-07T17:58:45.426Z,31.29
2022-09-07T18:01:20.505Z,31.41
2022-09-07T18:03:55.020Z,31.68
2022-09-07T18:06:30.299Z,31.88
2022-09-07T18:09:07.483Z,31.85
2022-09-07T18:11:45.989Z,31.98
2022-09-07T18:14:21.625Z,32.25
2022-09-07T18:16:55.261Z,32.28
2022-09-07T18:19:28.623Z,32.50
2022-09-07T18:22:04.630Z,32.66
2022-09-07T18:24:38.812Z,32.83
2022-09-07T18:27:13.019Z,32.83
2022-09-07T18:29:46.743Z,32.91
2022-09-07T18:32:20.234Z,33.08
2022-09-07T18:34:54.215Z,33.14
2022-09-07T18:37:28.324Z,33.22
2022-09-07T18:40:06.794Z,33.29
2022-09-07T18:42:42.743Z,33.50
2022-09-07T18:45:32.500Z,33.54
2022-09-07T18:48:07.139Z,33.69
2022-09-07T18:50:42.270Z,33.89
2022-09-07T18:53:17.027Z,34.12
2022-09-07T18:55:51.048Z,34.41
2022-09-07T18:58:25.018Z,34.56
2022-09-07T19:00:59.704Z,34.69
2022-09-07T19:03:34.860Z,34.71
2022-09-07T19:06:11.101Z,34.60
2022-09-07T19:08:47.772Z,34.78
2022-09-07T19:11:24.649Z,34.84
2022-09-07T19:14:04.819Z,34.70
2022-09-07T19:16:39.194Z,34.72
2022-09-07T19:19:16.227Z,34.61
2022-09-07T19:21:50.466Z,34.71
2022-09-07T19:24:24.170Z,34.40
2022-09-07T19:27:00.627Z,34.27
2022-09-07T19:29:35.501Z,34.13
2022-09-07T19:32:12.616Z,34.05
2022-09-07T19:34:48.181Z,34.10
2022-09-07T19:37:26.215Z,33.87
2022-09-07T19:40:00.591Z,33.64
2022-09-07T19:42:34.792Z,33.69
2022-09-07T19:45:11.029Z,33.56
2022-09-07T19:47:44.811Z,33.78
2022-09-07T19:50:20.266Z,33.97
2022-09-07T19:52:54.303Z,33.90
2022-09-07T19:55:28.827Z,34.13
2022-09-07T19:58:02.757Z,34.21
2022-09-07T20:03:31.756Z,34.42
2022-09-07T20:06:11.346Z,34.55
2022-09-07T20:08:45.910Z,34.56
2022-09-07T20:11:20.819Z,34.40
2022-09-07T20:13:54.933Z,34.14
2022-09-07T20:16:29.466Z,34.22
2022-09-07T20:19:03.906Z,34.47
2022-09-07T20:21:38.787Z,34.48
2022-09-07T20:24:15.033Z,34.40
2022-09-07T20:26:48.946Z,34.24
2022-09-07T20:29:29.690Z,34.29
2022-09-07T20:32:04.014Z,34.23
2022-09-07T20:34:38.065Z,34.34
2022-09-07T20:37:11.622Z,34.32
2022-09-07T20:39:45.383Z,34.34
2022-09-07T20:42:19.297Z,34.11
2022-09-07T20:44:53.893Z,34.38
2022-09-07T20:47:27.272Z,34.46
2022-09-07T20:50:00.641Z,34.52
2022-09-07T20:52:34.103Z,34.65
2022-09-07T20:55:08.881Z,34.69
2022-09-07T20:57:42.222Z,34.52
2022-09-07T21:00:16.392Z,34.35
2022-09-07T21:02:50.260Z,34.58
2022-09-07T21:05:24.141Z,34.68
2022-09-07T21:07:58.176Z,34.85
2022-09-07T21:10:31.740Z,35.01
2022-09-07T21:13:05.358Z,35.07
2022-09-07T21:15:42.990Z,35.06
2022-09-07T21:18:18.270Z,35.20
2022-09-07T21:21:18.843Z,35.15
2022-09-07T21:23:58.443Z,35.03
2022-09-07T21:26:32.558Z,35.25
2022-09-07T21:29:06.803Z,35.27
2022-09-07T21:31:40.884Z,35.23
2022-09-07T21:34:14.842Z,35.56
2022-09-07T21:36:48.435Z,35.54
2022-09-07T21:39:22.587Z,35.56
2022-09-07T21:41:56.146Z,35.59
2022-09-07T21:44:29.569Z,35.62
2022-09-07T21:47:03.074Z,35.70
2022-09-07T21:49:36.763Z,35.70
2022-09-07T21:52:10.277Z,35.85
2022-09-07T21:54:44.710Z,36.02
2022-09-07T21:57:18.157Z,36.48
2022-09-07T21:59:51.827Z,36.56
2022-09-07T22:02:25.713Z,36.73
2022-09-07T22:04:59.361Z,37.21
2022-09-07T22:07:32.643Z,37.15
2022-09-07T22:10:06.924Z,36.76
2022-09-07T22:12:40.109Z,36.79
2022-09-07T22:15:14.399Z,36.86
2022-09-07T22:17:48.229Z,36.77
2022-09-07T22:20:21.889Z,37.06
2022-09-07T22:22:55.513Z,37.29
2022-09-07T22:25:28.777Z,37.37
2022-09-07T22:28:02.297Z,37.48
2022-09-07T22:30:35.508Z,37.62
2022-09-07T22:33:09.189Z,37.80
2022-09-07T22:35:42.473Z,37.48
2022-09-07T22:38:16.105Z,37.10
2022-09-07T22:40:49.671Z,37.20
2022-09-07T22:43:23.155Z,37.11
2022-09-07T22:45:56.553Z,36.94
2022-09-07T22:48:30.890Z,37.43
2022-09-07T22:51:05.584Z,37.51
2022-09-07T22:53:41.716Z,37.36
2022-09-07T22:56:17.351Z,37.50
2022-09-07T22:58:52.797Z,37.34
2022-09-07T23:01:27.268Z,37.68
2022-09-07T23:04:01.650Z,37.25
2022-09-07T23:06:36.962Z,37.58
2022-09-07T23:09:12.124Z,37.74
2022-09-07T23:11:46.611Z,38.13
2022-09-07T23:14:22.409Z,38.22
2022-09-07T23:16:56.938Z,38.55
2022-09-07T23:19:30.164Z,38.86
2022-09-07T23:22:03.266Z,38.97
2022-09-07T23:24:37.101Z,39.10
2022-09-07T23:27:10.842Z,39.42
2022-09-07T23:29:44.521Z,39.36
2022-09-07T23:32:17.725Z,39.52
2022-09-07T23:34:54.064Z,39.50
2022-09-07T23:37:27.342Z,39.55
2022-09-07T23:40:00.591Z,39.53
2022-09-07T23:42:34.100Z,39.57
2022-09-07T23:45:08.480Z,39.67
2022-09-07T23:47:42.115Z,39.54
2022-09-07T23:50:15.765Z,39.26
2022-09-07T23:52:49.673Z,39.51
2022-09-07T23:55:23.238Z,39.22
2022-09-07T23:57:56.915Z,39.19
